createdAt,value
2018-07-19T00:00:04.949Z,17.60
2018-07-19T00:02:33.573Z,17.60
2018-07-19T00:05:02.202Z,17.60
2018-07-19T00:07:30.815Z,17.70
2018-07-19T00:09:59.529Z,17.70
2018-07-19T00:12:28.133Z,17.70
2018-07-19T00:14:56.749Z,17.70
2018-07-19T00:17:25.381Z,17.70
2018-07-19T00:19:54.017Z,17.70
2018-07-19T00:22:22.645Z,17.80
2018-07-19T00:24:51.294Z,17.80
2018-07-19T00:29:48.144Z,17.90
2018-07-19T00:32:16.737Z,17.90
2018-07-19T00:34:45.322Z,18.00
2018-07-19T00:37:13.933Z,18.00
2018-07-19T00:39:42.578Z,18.00
2018-07-19T00:42:11.291Z,18.00
2018-07-19T00:44:39.880Z,17.90
2018-07-19T00:47:08.518Z,17.90
2018-07-19T00:49:37.107Z,17.80
2018-07-19T00:52:05.749Z,17.70
2018-07-19T00:54:34.348Z,17.70
2018-07-19T00:57:03.058Z,17.60
2018-07-19T00:59:31.649Z,17.50
2018-07-19T01:02:00.275Z,17.40
2018-07-19T01:04:28.877Z,17.30
2018-07-19T01:06:57.513Z,17.20
2018-07-19T01:09:26.105Z,17.20
2018-07-19T01:11:54.693Z,17.10
2018-07-19T01:14:23.322Z,17.10
2018-07-19T01:19:20.231Z,17.00
2018-07-19T01:21:48.846Z,16.90
2018-07-19T01:24:17.585Z,16.90
2018-07-19T01:26:46.178Z,16.80
2018-07-19T01:29:14.786Z,16.80
2018-07-19T01:31:43.415Z,16.70
2018-07-19T01:34:12.021Z,16.70
2018-07-19T01:36:40.630Z,16.60
2018-07-19T01:39:10.366Z,16.60
2018-07-19T01:42:18.060Z,16.50
2018-07-19T01:44:46.671Z,16.40
2018-07-19T01:47:15.260Z,16.40
2018-07-19T01:49:44.801Z,16.20
2018-07-19T01:52:13.885Z,16.20
2018-07-19T01:54:42.549Z,16.10
2018-07-19T01:57:12.381Z,16.10
2018-07-19T01:59:41.717Z,16.00
2018-07-19T02:02:10.497Z,15.90
2018-07-19T02:04:39.061Z,15.80
2018-07-19T02:07:08.051Z,15.80
2018-07-19T02:09:36.700Z,15.70
2018-07-19T02:12:05.393Z,15.70
2018-07-19T02:14:33.989Z,15.60
2018-07-19T02:17:03.049Z,15.60
2018-07-19T02:19:31.703Z,15.60
2018-07-19T02:22:00.340Z,15.50
2018-07-19T02:24:28.944Z,15.50
2018-07-19T02:26:57.564Z,15.40
2018-07-19T02:29:26.157Z,15.30
2018-07-19T02:31:54.776Z,15.30
2018-07-19T02:34:23.377Z,15.20
2018-07-19T02:36:52.012Z,15.20
2018-07-19T02:39:20.665Z,15.20
2018-07-19T02:41:49.335Z,15.10
2018-07-19T02:44:17.946Z,15.10
2018-07-19T02:46:46.525Z,15.10
2018-07-19T02:49:15.153Z,15.10
2018-07-19T02:51:44.289Z,15.10
2018-07-19T02:54:13.203Z,15.10
2018-07-19T02:56:41.912Z,15.00
2018-07-19T02:59:10.545Z,15.00
2018-07-19T03:01:39.124Z,15.00
2018-07-19T03:04:07.808Z,14.90
2018-07-19T03:06:36.455Z,14.90
2018-07-19T03:09:06.842Z,14.80
2018-07-19T03:11:35.774Z,14.90
2018-07-19T03:14:04.432Z,14.80
2018-07-19T03:16:33.047Z,14.80
2018-07-19T03:19:01.685Z,14.70
2018-07-19T03:21:30.276Z,14.70
2018-07-19T03:23:58.888Z,14.70
2018-07-19T03:26:27.521Z,14.70
2018-07-19T03:28:56.093Z,14.80
2018-07-19T03:31:24.705Z,14.70
2018-07-19T03:33:53.284Z,14.80
2018-07-19T03:36:21.900Z,14.80
2018-07-19T03:38:50.505Z,14.90
2018-07-19T03:41:19.201Z,15.00
2018-07-19T03:43:47.781Z,15.00
2018-07-19T03:46:16.385Z,15.10
2018-07-19T03:48:45.110Z,15.20
2018-07-19T03:51:13.801Z,15.30
2018-07-19T03:53:42.417Z,15.30
2018-07-19T03:56:11.057Z,15.30
2018-07-19T03:58:39.665Z,15.30
2018-07-19T04:01:08.269Z,15.40
2018-07-19T04:03:36.885Z,15.40
2018-07-19T04:06:05.588Z,15.40
2018-07-19T04:08:34.214Z,15.50
2018-07-19T04:11:02.785Z,15.40
2018-07-19T04:13:31.388Z,15.50
2018-07-19T04:15:59.977Z,15.50
2018-07-19T04:18:28.651Z,15.50
2018-07-19T04:20:57.345Z,15.60
2018-07-19T04:23:25.990Z,15.50
2018-07-19T04:25:54.610Z,15.60
2018-07-19T04:28:23.217Z,15.60
2018-07-19T04:30:51.800Z,15.60
2018-07-19T04:33:20.413Z,15.80
2018-07-19T04:35:49.001Z,15.80
2018-07-19T04:38:17.654Z,15.90
2018-07-19T04:40:46.306Z,15.90
2018-07-19T04:43:14.980Z,15.90
2018-07-19T04:45:43.637Z,16.00
2018-07-19T04:48:12.318Z,16.00
2018-07-19T04:53:09.186Z,16.10
2018-07-19T04:55:37.833Z,16.10
2018-07-19T04:58:06.561Z,16.20
2018-07-19T05:00:35.228Z,16.20
2018-07-19T05:03:04.101Z,16.20
2018-07-19T05:05:32.719Z,16.30
2018-07-19T05:08:01.345Z,16.30
2018-07-19T05:10:29.988Z,16.30
2018-07-19T05:12:58.646Z,16.50
2018-07-19T05:15:27.285Z,16.50
2018-07-19T05:17:55.916Z,16.60
2018-07-19T05:20:24.542Z,16.60
2018-07-19T05:22:53.231Z,16.70
2018-07-19T05:25:21.860Z,16.70
2018-07-19T05:27:50.503Z,16.80
2018-07-19T05:30:19.153Z,16.80
2018-07-19T05:32:47.782Z,16.80
2018-07-19T05:35:16.404Z,16.90
2018-07-19T05:37:45.056Z,17.00
2018-07-19T05:40:13.683Z,17.00
2018-07-19T05:42:42.369Z,17.10
2018-07-19T05:45:10.973Z,17.10
2018-07-19T05:47:39.573Z,17.20
2018-07-19T05:50:08.217Z,17.30
2018-07-19T05:52:36.834Z,17.40
2018-07-19T05:55:05.525Z,17.50
2018-07-19T05:57:34.096Z,17.60
2018-07-19T06:00:02.791Z,17.60
2018-07-19T06:02:31.408Z,17.70
2018-07-19T06:05:00.072Z,17.70
2018-07-19T06:07:28.687Z,17.80
2018-07-19T06:09:57.325Z,17.90
2018-07-19T06:12:25.925Z,18.00
2018-07-19T06:14:54.552Z,18.00
2018-07-19T06:17:23.221Z,18.00
2018-07-19T06:19:51.936Z,18.10
2018-07-19T06:22:20.554Z,18.10
2018-07-19T06:24:49.193Z,18.10
2018-07-19T06:27:17.828Z,18.20
2018-07-19T06:29:46.434Z,18.30
2018-07-19T06:32:15.056Z,18.40
2018-07-19T06:34:43.669Z,18.50
2018-07-19T06:37:12.296Z,18.60
2018-07-19T06:39:40.982Z,18.70
2018-07-19T06:42:09.658Z,18.70
2018-07-19T06:44:38.301Z,18.80
2018-07-19T06:47:06.948Z,18.90
2018-07-19T06:49:35.522Z,19.00
2018-07-19T06:52:04.233Z,19.20
2018-07-19T06:54:32.858Z,19.20
2018-07-19T06:57:01.563Z,19.30
2018-07-19T06:59:30.174Z,19.40
2018-07-19T07:01:58.767Z,19.40
2018-07-19T07:04:27.397Z,19.50
2018-07-19T07:06:56.001Z,19.60
2018-07-19T07:09:24.613Z,19.70
2018-07-19T07:11:53.214Z,19.70
2018-07-19T07:14:21.941Z,19.80
2018-07-19T07:16:50.564Z,19.90
2018-07-19T07:19:19.233Z,19.90
2018-07-19T07:21:47.857Z,20.00
2018-07-19T07:24:16.596Z,20.20
2018-07-19T07:26:45.225Z,20.30
2018-07-19T07:29:13.925Z,20.40
2018-07-19T07:31:42.851Z,20.60
2018-07-19T07:34:11.488Z,20.80
2018-07-19T07:36:40.097Z,21.00
2018-07-19T07:39:09.869Z,21.10
2018-07-19T07:41:38.612Z,21.10
2018-07-19T07:44:07.288Z,21.20
2018-07-19T07:46:35.874Z,21.20
2018-07-19T07:49:04.575Z,21.40
2018-07-19T07:51:33.211Z,21.60
2018-07-19T07:54:01.831Z,21.70
2018-07-19T07:56:31.433Z,21.60
2018-07-19T07:59:00.015Z,21.70
2018-07-19T08:01:28.645Z,21.60
2018-07-19T08:03:57.290Z,21.70
2018-07-19T08:06:25.966Z,21.70
2018-07-19T08:08:54.599Z,21.80
2018-07-19T08:11:23.172Z,21.80
2018-07-19T08:13:51.829Z,22.00
2018-07-19T08:16:20.442Z,22.20
2018-07-19T08:18:49.138Z,22.30
2018-07-19T08:21:17.807Z,22.40
2018-07-19T08:23:47.467Z,22.50
2018-07-19T08:26:16.172Z,22.60
2018-07-19T08:28:44.838Z,22.70
2018-07-19T08:31:13.474Z,22.60
2018-07-19T08:33:42.090Z,22.60
2018-07-19T08:36:10.697Z,22.60
2018-07-19T08:38:39.321Z,22.60
2018-07-19T08:41:07.929Z,22.60
2018-07-19T08:43:36.565Z,22.50
2018-07-19T08:46:05.287Z,22.60
2018-07-19T08:48:33.874Z,22.80
2018-07-19T08:51:02.546Z,23.00
2018-07-19T08:53:31.149Z,23.20
2018-07-19T08:58:28.448Z,23.20
2018-07-19T09:00:57.145Z,23.30
2018-07-19T09:03:25.817Z,23.50
2018-07-19T09:05:54.429Z,23.70
2018-07-19T09:08:23.072Z,23.70
2018-07-19T09:10:51.685Z,23.90
2018-07-19T09:13:20.289Z,24.10
2018-07-19T09:15:48.925Z,24.30
2018-07-19T09:18:17.525Z,24.40
2018-07-19T09:20:46.251Z,24.60
2018-07-19T09:23:14.918Z,24.70
2018-07-19T09:25:43.552Z,24.90
2018-07-19T09:28:12.189Z,24.90
2018-07-19T09:30:41.549Z,25.00
2018-07-19T09:33:10.172Z,25.20
2018-07-19T09:35:38.776Z,25.20
2018-07-19T09:38:07.400Z,25.30
2018-07-19T09:40:36.081Z,25.30
2018-07-19T09:43:04.816Z,25.20
2018-07-19T09:45:33.490Z,25.30
2018-07-19T09:48:02.186Z,25.40
2018-07-19T09:50:30.800Z,25.40
2018-07-19T09:52:59.428Z,25.50
2018-07-19T09:55:28.013Z,25.60
2018-07-19T09:57:56.642Z,25.70
2018-07-19T10:00:30.558Z,25.80
2018-07-19T10:02:59.196Z,26.00
2018-07-19T10:05:27.804Z,26.10
2018-07-19T10:07:56.473Z,26.10
2018-07-19T10:10:25.082Z,26.30
2018-07-19T10:12:53.946Z,26.40
2018-07-19T10:15:22.599Z,26.50
2018-07-19T10:17:51.273Z,26.70
2018-07-19T10:22:48.184Z,26.80
2018-07-19T10:25:17.594Z,27.00
2018-07-19T10:27:46.230Z,27.10
2018-07-19T10:30:14.872Z,27.20
2018-07-19T10:32:43.507Z,27.20
2018-07-19T10:35:12.126Z,27.40
2018-07-19T10:37:40.773Z,27.50
2018-07-19T10:40:09.362Z,27.70
2018-07-19T10:42:37.969Z,27.60
2018-07-19T10:45:06.703Z,27.70
2018-07-19T10:47:35.324Z,27.80
2018-07-19T10:50:04.030Z,27.80
2018-07-19T10:52:32.621Z,28.00
2018-07-19T10:55:01.235Z,28.20
2018-07-19T10:57:29.880Z,28.30
2018-07-19T10:59:58.435Z,28.60
2018-07-19T11:02:27.045Z,28.90
2018-07-19T11:04:55.613Z,28.70
2018-07-19T11:07:24.213Z,28.40
2018-07-19T11:09:52.831Z,28.00
2018-07-19T11:12:21.451Z,27.80
2018-07-19T11:14:50.053Z,27.50
2018-07-19T11:17:18.651Z,27.20
2018-07-19T11:19:47.235Z,27.10
2018-07-19T11:22:15.830Z,27.00
2018-07-19T11:24:44.454Z,26.90
2018-07-19T11:27:13.027Z,27.00
2018-07-19T11:29:41.645Z,26.90
2018-07-19T11:32:10.224Z,26.70
2018-07-19T11:34:38.825Z,26.50
2018-07-19T11:37:07.452Z,26.40
2018-07-19T11:39:36.058Z,26.20
2018-07-19T11:42:04.655Z,26.00
2018-07-19T11:44:33.281Z,25.90
2018-07-19T11:47:01.871Z,25.90
2018-07-19T11:51:58.706Z,26.10
2018-07-19T11:54:27.321Z,26.70
2018-07-19T11:56:55.917Z,27.30
2018-07-19T11:59:24.550Z,27.90
2018-07-19T12:01:53.195Z,28.50
2018-07-19T12:04:21.808Z,28.80
2018-07-19T12:06:50.393Z,29.00
2018-07-19T12:09:18.976Z,29.30
2018-07-19T12:11:47.615Z,29.50
2018-07-19T12:14:16.195Z,29.70
2018-07-19T12:16:44.813Z,30.00
2018-07-19T12:19:13.413Z,30.00
2018-07-19T12:21:42.153Z,30.30
2018-07-19T12:24:10.772Z,30.40
2018-07-19T12:26:39.437Z,30.50
2018-07-19T12:29:08.033Z,30.50
2018-07-19T12:31:36.626Z,30.60
2018-07-19T12:34:08.320Z,30.70
2018-07-19T12:36:36.945Z,30.90
2018-07-19T12:39:08.657Z,31.20
2018-07-19T12:41:37.290Z,31.20
2018-07-19T12:44:05.870Z,31.20
2018-07-19T12:46:34.497Z,31.30
2018-07-19T12:49:03.103Z,31.50
2018-07-19T12:51:31.756Z,31.70
2018-07-19T12:54:00.353Z,31.90
2018-07-19T12:56:28.985Z,31.80
2018-07-19T12:58:57.864Z,32.00
2018-07-19T13:01:26.425Z,32.20
2018-07-19T13:03:55.096Z,32.20
2018-07-19T13:06:23.733Z,32.30
2018-07-19T13:08:52.549Z,32.00
2018-07-19T13:11:21.125Z,31.60
2018-07-19T13:16:18.631Z,31.00
2018-07-19T13:18:47.297Z,30.40
2018-07-19T13:21:16.197Z,29.80
2018-07-19T13:23:45.162Z,29.30
2018-07-19T13:26:13.801Z,29.10
2018-07-19T13:28:42.431Z,29.50
2018-07-19T13:33:39.233Z,30.70
2018-07-19T13:36:07.953Z,31.10
2018-07-19T13:38:37.416Z,31.60
2018-07-19T13:43:34.686Z,31.10
2018-07-19T13:46:03.324Z,30.70
2018-07-19T13:48:31.907Z,30.40
2018-07-19T13:51:00.564Z,30.30
2018-07-19T13:53:41.078Z,30.10
2018-07-19T13:56:10.142Z,30.00
2018-07-19T13:58:39.216Z,29.80
2018-07-19T14:01:07.829Z,30.20
2018-07-19T14:03:36.412Z,30.30
2018-07-19T14:06:05.118Z,30.00
2018-07-19T14:08:33.685Z,30.10
2018-07-19T14:11:02.282Z,30.00
2018-07-19T14:13:30.946Z,30.30
2018-07-19T14:15:59.532Z,30.00
2018-07-19T14:18:28.221Z,30.00
2018-07-19T14:20:56.823Z,29.80
2018-07-19T14:23:25.438Z,30.30
2018-07-19T14:25:54.010Z,30.60
2018-07-19T14:28:22.593Z,30.40
2018-07-19T14:30:51.191Z,30.40
2018-07-19T14:33:19.805Z,30.80
2018-07-19T14:35:48.386Z,31.20
2018-07-19T14:38:17.070Z,31.30
2018-07-19T14:40:46.018Z,31.40
2018-07-19T14:43:14.633Z,31.40
2018-07-19T14:45:43.213Z,31.40
2018-07-19T14:48:12.090Z,31.60
2018-07-19T14:50:40.662Z,31.60
2018-07-19T14:53:11.404Z,31.80
2018-07-19T14:55:40.196Z,32.00
2018-07-19T14:58:08.921Z,32.00
2018-07-19T15:00:37.557Z,32.20
2018-07-19T15:03:06.161Z,32.40
2018-07-19T15:05:34.790Z,32.50
2018-07-19T15:08:03.416Z,32.60
2018-07-19T15:10:32.025Z,32.40
2018-07-19T15:13:00.692Z,32.40
2018-07-19T15:15:29.349Z,31.90
2018-07-19T15:17:57.934Z,31.30
2018-07-19T15:20:26.525Z,30.80
2018-07-19T15:22:55.145Z,30.30
2018-07-19T15:25:23.790Z,29.90
2018-07-19T15:27:52.455Z,29.60
2018-07-19T15:30:21.873Z,29.50
2018-07-19T15:32:50.729Z,29.80
2018-07-19T15:35:19.413Z,30.00
2018-07-19T15:37:48.049Z,30.20
2018-07-19T15:40:16.702Z,30.50
2018-07-19T15:42:45.286Z,30.60
2018-07-19T15:45:13.924Z,30.40
2018-07-19T15:47:42.532Z,30.40
2018-07-19T15:50:11.135Z,30.50
2018-07-19T15:52:39.745Z,30.70
2018-07-19T15:57:36.589Z,30.70
2018-07-19T16:00:05.974Z,30.50
2018-07-19T16:02:34.617Z,30.20
2018-07-19T16:05:03.385Z,30.20
2018-07-19T16:07:31.953Z,30.30
2018-07-19T16:10:00.543Z,30.30
2018-07-19T16:14:57.505Z,30.30
2018-07-19T16:17:26.138Z,30.20
2018-07-19T16:19:54.879Z,30.00
2018-07-19T16:22:23.545Z,30.00
2018-07-19T16:24:52.239Z,29.90
2018-07-19T16:27:20.861Z,29.70
2018-07-19T16:29:49.465Z,29.70
2018-07-19T16:32:18.082Z,29.60
2018-07-19T16:34:46.689Z,29.20
2018-07-19T16:37:15.277Z,28.90
2018-07-19T16:39:43.893Z,28.70
2018-07-19T16:42:12.504Z,28.40
2018-07-19T16:44:41.092Z,28.10
2018-07-19T16:47:09.697Z,28.00
2018-07-19T16:49:38.305Z,27.80
2018-07-19T16:52:07.021Z,27.60
2018-07-19T16:54:35.785Z,27.60
2018-07-19T16:57:04.469Z,27.50
2018-07-19T16:59:33.104Z,27.50
2018-07-19T17:02:01.701Z,27.30
2018-07-19T17:04:30.282Z,27.10
2018-07-19T17:06:58.905Z,27.00
2018-07-19T17:09:27.486Z,26.80
2018-07-19T17:11:56.134Z,26.70
2018-07-19T17:14:24.710Z,26.50
2018-07-19T17:16:53.365Z,26.30
2018-07-19T17:19:21.965Z,26.20
2018-07-19T17:21:50.542Z,26.00
2018-07-19T17:24:19.174Z,25.80
2018-07-19T17:26:47.749Z,25.70
2018-07-19T17:29:16.349Z,25.50
2018-07-19T17:31:44.921Z,25.40
2018-07-19T17:34:13.710Z,25.30
2018-07-19T17:36:42.268Z,25.20
2018-07-19T17:39:12.287Z,25.10
2018-07-19T17:41:41.594Z,25.00
2018-07-19T17:44:10.204Z,25.00
2018-07-19T17:46:38.865Z,25.00
2018-07-19T17:49:07.591Z,25.00
2018-07-19T17:51:36.308Z,24.90
2018-07-19T17:54:04.941Z,24.90
2018-07-19T17:56:33.532Z,24.90
2018-07-19T17:59:02.110Z,24.80
2018-07-19T18:01:30.774Z,24.80
2018-07-19T18:03:59.368Z,24.80
2018-07-19T18:06:28.063Z,24.80
2018-07-19T18:08:56.671Z,24.80
2018-07-19T18:11:25.289Z,24.80
2018-07-19T18:13:55.466Z,24.80
2018-07-19T18:16:24.329Z,24.80
2018-07-19T18:18:52.977Z,24.80
2018-07-19T18:21:21.625Z,24.80
2018-07-19T18:23:50.304Z,24.70
2018-07-19T18:26:18.917Z,24.60
2018-07-19T18:28:47.505Z,24.50
2018-07-19T18:31:16.185Z,24.50
2018-07-19T18:33:44.849Z,24.40
2018-07-19T18:36:13.538Z,24.30
2018-07-19T18:38:42.233Z,24.20
2018-07-19T18:41:10.858Z,24.10
2018-07-19T18:43:39.472Z,24.00
2018-07-19T18:46:08.042Z,23.90
2018-07-19T18:48:36.687Z,23.80
2018-07-19T18:51:05.273Z,23.60
2018-07-19T18:53:33.866Z,23.50
2018-07-19T18:56:02.454Z,23.40
2018-07-19T18:58:31.066Z,23.30
2018-07-19T19:00:59.727Z,23.20
2018-07-19T19:03:28.321Z,23.10
2018-07-19T19:05:56.939Z,23.00
2018-07-19T19:08:25.566Z,23.00
2018-07-19T19:10:54.137Z,22.80
2018-07-19T19:13:22.733Z,22.70
2018-07-19T19:15:51.337Z,22.60
2018-07-19T19:18:20.356Z,22.50
2018-07-19T19:20:48.954Z,22.40
2018-07-19T19:23:17.612Z,22.40
2018-07-19T19:25:46.231Z,22.20
2018-07-19T19:28:14.815Z,22.10
2018-07-19T19:30:43.449Z,22.10
2018-07-19T19:33:12.062Z,21.90
2018-07-19T19:35:40.693Z,21.90
2018-07-19T19:38:09.585Z,21.80
2018-07-19T19:40:38.318Z,21.70
2018-07-19T19:43:07.102Z,21.70
2018-07-19T19:45:35.817Z,21.60
2018-07-19T19:48:04.616Z,21.50
2018-07-19T19:50:33.263Z,21.30
2018-07-19T19:53:01.853Z,21.20
2018-07-19T19:55:30.456Z,21.10
2018-07-19T19:57:59.061Z,21.00
2018-07-19T20:00:27.645Z,20.90
2018-07-19T20:02:56.313Z,20.90
2018-07-19T20:05:24.903Z,20.80
2018-07-19T20:07:53.514Z,20.70
2018-07-19T20:10:22.093Z,20.60
2018-07-19T20:12:50.785Z,20.50
2018-07-19T20:15:19.389Z,20.50
2018-07-19T20:17:48.005Z,20.40
2018-07-19T20:20:16.626Z,20.40
2018-07-19T20:22:45.241Z,20.40
2018-07-19T20:25:14.181Z,20.40
2018-07-19T20:27:42.831Z,20.30
2018-07-19T20:30:11.426Z,20.30
2018-07-19T20:32:40.033Z,20.20
2018-07-19T20:35:08.615Z,20.10
2018-07-19T20:37:37.290Z,20.10
2018-07-19T20:40:05.880Z,20.10
2018-07-19T20:42:34.477Z,20.00
2018-07-19T20:45:03.080Z,19.90
2018-07-19T20:47:31.674Z,19.90
2018-07-19T20:50:00.274Z,19.90
2018-07-19T20:52:28.837Z,19.90
2018-07-19T20:54:57.496Z,19.90
2018-07-19T20:57:26.117Z,19.80
2018-07-19T20:59:54.769Z,19.80
2018-07-19T21:02:23.336Z,19.70
2018-07-19T21:04:51.950Z,19.70
2018-07-19T21:07:20.733Z,19.60
2018-07-19T21:09:49.342Z,19.60
2018-07-19T21:12:17.929Z,19.60
2018-07-19T21:14:46.509Z,19.70
2018-07-19T21:17:15.177Z,19.80
2018-07-19T21:19:43.741Z,19.80
2018-07-19T21:22:12.361Z,19.80
2018-07-19T21:24:40.953Z,19.70
2018-07-19T21:27:09.552Z,19.60
2018-07-19T21:29:38.120Z,19.60
2018-07-19T21:32:06.793Z,19.50
2018-07-19T21:34:35.414Z,19.60
2018-07-19T21:37:04.066Z,19.50
2018-07-19T21:39:32.659Z,19.50
2018-07-19T21:42:01.238Z,19.40
2018-07-19T21:44:29.806Z,19.40
2018-07-19T21:46:58.383Z,19.40
2018-07-19T21:49:26.952Z,19.30
2018-07-19T21:51:55.581Z,19.30
2018-07-19T21:54:24.168Z,19.20
2018-07-19T21:56:52.733Z,19.10
2018-07-19T21:59:21.343Z,19.10
2018-07-19T22:01:49.905Z,19.00
2018-07-19T22:04:20.277Z,19.00
2018-07-19T22:06:53.841Z,19.00
2018-07-19T22:09:23.649Z,19.00
2018-07-19T22:11:52.672Z,19.00
2018-07-19T22:14:21.278Z,19.00
2018-07-19T22:16:49.888Z,18.90
2018-07-19T22:19:18.497Z,18.90
2018-07-19T22:21:47.053Z,18.90
2018-07-19T22:24:15.666Z,18.80
2018-07-19T22:26:44.297Z,18.70
2018-07-19T22:29:12.861Z,18.60
2018-07-19T22:31:41.482Z,18.50
2018-07-19T22:34:10.078Z,18.50
2018-07-19T22:36:38.661Z,18.50
2018-07-19T22:39:09.955Z,18.40
2018-07-19T22:41:38.652Z,18.30
2018-07-19T22:44:07.296Z,18.30
2018-07-19T22:46:35.992Z,18.30
2018-07-19T22:49:04.565Z,18.30
2018-07-19T22:51:33.157Z,18.30
2018-07-19T22:54:01.739Z,18.20
2018-07-19T22:56:30.363Z,18.10
2018-07-19T22:58:58.952Z,18.10
2018-07-19T23:01:27.605Z,18.10
2018-07-19T23:03:56.187Z,18.10
2018-07-19T23:06:25.395Z,18.10
2018-07-19T23:08:54.030Z,18.10
2018-07-19T23:11:22.620Z,18.10
2018-07-19T23:13:51.209Z,18.00
2018-07-19T23:16:19.781Z,18.00
2018-07-19T23:18:48.382Z,17.90
2018-07-19T23:21:16.953Z,17.80
2018-07-19T23:23:45.565Z,17.70
2018-07-19T23:26:14.138Z,17.60
2018-07-19T23:28:42.822Z,17.50
2018-07-19T23:31:11.456Z,17.50
2018-07-19T23:33:40.110Z,17.50
2018-07-19T23:36:14.829Z,17.40
2018-07-19T23:38:47.924Z,17.40
2018-07-19T23:41:20.694Z,17.40
2018-07-19T23:43:52.924Z,17.30
2018-07-19T23:46:27.114Z,17.40
2018-07-19T23:48:56.351Z,17.40
2018-07-19T23:51:24.948Z,17.40
2018-07-19T23:53:53.513Z,17.30
2018-07-19T23:56:22.092Z,17.20
2018-07-19T23:58:50.670Z,17.20
